BFS weather

Belfast International Airport
Belfast, Northern Ireland, United Kingdom

Public forecast

Using degrees Celsius for public forecast. Weather courtesy of forecast.io.

Current aviation weather report (METAR) for Belfast International Airport

Retrieved 2019/11/17 11:20 UTC (0 seconds ago):

EGAA 171120Z 00000KT 9999 SCT034 04/04 Q1016

Aviation forecast (TAF) for Belfast International Airport

Retrieved 2019/11/17 06:00 UTC (5 hours ago):

TAF EGAA 170459Z 1706/1806 VRB03KT 9999 FEW015 SCT030 TEMPO 1706/1708 1200 BR BKN002 TEMPO 1708/1711 5000 RA SHRA BKN007 BECMG 1709/1712 35010KT PROB30 TEMPO 1711/1714 7000 SHRA